Time;durP1;ratioP1;P1;durP2;ratioP2;P2;SDS_P1;SDS_P2;PMS_P1;PMS_P2;Temp;Humidity;BMP_temperature;BMP_pressure;BME280_temperature;BME280_humidity;BME280_pressure;Samples;Min_cycle;Max_cycle;Signal;HPM_P1;HPM_P2
2022/01/13 00:01:11;;;;;;;58.20;23.20;;;;;;;;;;5095355;28;20239;-87
2022/01/13 00:03:37;;;;;;;50.43;22.13;;;;;;;;;;5094871;28;20179;-87
2022/01/13 00:06:03;;;;;;;56.97;22.93;;;;;;;;;;5113020;28;20172;-86
2022/01/13 00:08:29;;;;;;;45.53;17.27;;;;;;;;;;5095279;28;20175;-86
2022/01/13 00:10:55;;;;;;;62.77;22.33;;;;;;;;;;5094822;28;20182;-87
2022/01/13 00:13:25;;;;;;;60.70;22.83;;;;;;;;;;5113230;28;20263;-87
2022/01/13 00:18:40;;;;;;;54.83;22.53;;;;;;;;;;5113468;28;20203;-87
2022/01/13 00:21:16;;;;;;;49.43;22.50;;;;;;;;;;5077916;28;20236;-87
2022/01/13 00:23:49;;;;;;;48.83;18.17;;;;;;;;;;5096882;28;20158;-87
2022/01/13 00:26:26;;;;;;;64.30;24.47;;;-2.30;99.90;;;;;;5094764;28;20646;-86
2022/01/13 00:28:55;;;;;;;48.43;21.80;;;-2.20;99.90;;;;;;5097081;28;20179;-87
2022/01/13 00:31:31;;;;;;;47.80;20.20;;;-2.20;99.90;;;;;;5094786;28;20201;-87
2022/01/13 00:34:01;;;;;;;52.13;22.67;;;-2.20;99.90;;;;;;5094106;28;20167;-87
2022/01/13 00:36:33;;;;;;;46.90;20.77;;;-2.20;99.90;;;;;;5114878;28;20630;-86
2022/01/13 00:38:59;;;;;;;58.20;22.00;;;;;;;;;;5116236;28;20150;-87
2022/01/13 00:41:27;;;;;;;40.57;17.10;;;-2.20;99.90;;;;;;5098194;28;20220;-87
2022/01/13 00:43:54;;;;;;;59.63;24.47;;;;;;;;;;5098331;28;20191;-86
2022/01/13 00:46:26;;;;;;;51.23;21.57;;;;;;;;;;5116287;28;20177;-85
2022/01/13 00:48:53;;;;;;;50.50;22.27;;;-2.20;99.90;;;;;;5098512;28;20187;-86
2022/01/13 00:51:20;;;;;;;50.90;21.40;;;-2.20;99.90;;;;;;5116383;28;20219;-85
2022/01/13 00:53:46;;;;;;;51.70;22.93;;;;;;;;;;5098179;28;20185;-86
2022/01/13 00:56:12;;;;;;;51.17;19.63;;;;;;;;;;5115764;28;20209;-88
2022/01/13 00:58:39;;;;;;;51.20;21.23;;;;;;;;;;5098094;28;20177;-85
2022/01/13 01:01:06;;;;;;;45.37;22.37;;;-2.20;99.90;;;;;;5115894;28;20268;-86
2022/01/13 01:03:32;;;;;;;49.90;22.23;;;;;;;;;;5097530;28;20182;-86
2022/01/13 01:06:00;;;;;;;48.33;20.13;;;-2.20;99.90;;;;;;5115839;28;20201;-87
2022/01/13 01:08:26;;;;;;;52.13;22.07;;;;;;;;;;5097837;28;20608;-87
2022/01/13 01:10:54;;;;;;;54.40;22.17;;;;;;;;;;5097738;28;20185;-87
2022/01/13 01:13:23;;;;;;;61.43;25.63;;;;;;;;;;5097248;28;20216;-87
2022/01/13 01:15:53;;;;;;;49.17;20.47;;;-2.10;99.90;;;;;;5081628;28;20188;-86
2022/01/13 01:26:44;;;;;;;60.57;27.00;;;-2.10;99.90;;;;;;5103736;28;20682;-86
2022/01/13 01:29:53;;;;;;;51.70;18.93;;;-2.10;99.90;;;;;;5073424;28;20643;-86
2022/01/13 01:32:09;;;;;;;46.80;19.83;;;-2.30;99.90;;;;;;5096932;28;20661;-87
2022/01/13 01:37:02;;;;;;;56.50;23.77;;;;;;;;;;5105652;28;20198;-87
2022/01/13 01:39:28;;;;;;;58.70;23.80;;;;;;;;;;5069951;28;20224;-86
2022/01/13 01:41:56;;;;;;;65.97;23.10;;;-2.20;99.90;;;;;;5105623;28;20207;-87
2022/01/13 01:44:34;;;;;;;27.00;12.93;;;-2.00;99.90;;;;;;5099812;28;20183;-85
2022/01/13 01:47:00;;;;;;;53.13;23.60;;;;;;;;;;5106040;28;20576;-86
2022/01/13 01:49:27;;;;;;;52.83;22.40;;;-2.20;99.90;;;;;;5079088;28;20186;-86
2022/01/13 01:51:57;;;;;;;38.37;17.73;;;-2.30;99.90;;;;;;5099666;28;20215;-86
2022/01/13 01:54:24;;;;;;;65.03;28.63;;;;;;;;;;5083536;28;20217;-87
2022/01/13 01:56:50;;;;;;;49.20;22.90;;;;;;;;;;5090596;28;20183;-87
2022/01/13 01:59:19;;;;;;;51.30;21.27;;;-2.40;99.90;;;;;;5074614;28;20181;-88
2022/01/13 02:01:47;;;;;;;45.87;22.40;;;-2.40;99.90;;;;;;5089884;28;20691;-86
2022/01/13 02:04:13;;;;;;;62.40;25.77;;;;;;;;;;5114592;28;20603;-88
2022/01/13 02:06:40;;;;;;;54.10;24.77;;;;;;;;;;5086650;28;20193;-88
2022/01/13 02:09:07;;;;;;;53.90;24.23;;;-2.50;99.90;;;;;;5104627;28;20193;-87
2022/01/13 02:11:55;;;;;;;63.10;22.97;;;;;;;;;;5083392;28;20182;-88
2022/01/13 02:17:07;;;;;;;43.67;20.53;;;-2.50;99.90;;;;;;5105398;28;20193;-88
2022/01/13 02:19:35;;;;;;;58.70;24.03;;;-2.50;99.90;;;;;;5083836;28;20649;-87
2022/01/13 02:22:01;;;;;;;63.77;24.53;;;;;;;;;;5070791;28;20205;-88
2022/01/13 02:24:28;;;;;;;68.90;31.80;;;-2.50;99.90;;;;;;5108471;28;20206;-89
2022/01/13 02:26:54;;;;;;;58.37;25.57;;;-2.40;99.90;;;;;;5080602;28;20248;-88
2022/01/13 02:29:20;;;;;;;60.27;23.37;;;;;;;;;;5054915;28;20697;-88
2022/01/13 02:31:46;;;;;;;67.17;29.57;;;;;;;;;;5080951;28;20182;-87
2022/01/13 02:34:13;;;;;;;58.10;26.20;;;;;;;;;;5074710;28;20192;-87
2022/01/13 02:36:41;;;;;;;32.93;14.87;;;-2.30;99.90;;;;;;5075707;28;20213;-87
2022/01/13 02:39:07;;;;;;;50.53;22.37;;;;;;;;;;5059964;28;20600;-86
2022/01/13 02:41:33;;;;;;;53.63;24.77;;;;;;;;;;5093881;28;20240;-87
2022/01/13 02:43:59;;;;;;;60.17;23.47;;;;;;;;;;5059408;28;20590;-87
2022/01/13 02:49:05;;;;;;;53.87;22.37;;;-2.20;99.90;;;;;;5093896;28;20189;-87
2022/01/13 02:51:31;;;;;;;28.70;13.70;;;;;;;;;;5075361;28;20261;-87
2022/01/13 02:53:58;;;;;;;56.17;24.03;;;;;;;;;;5093702;28;20183;-87
2022/01/13 02:56:24;;;;;;;30.90;16.17;;;;;;;;;;5093555;28;20186;-87
2022/01/13 02:58:50;;;;;;;51.53;24.17;;;;;;;;;;5058326;28;20214;-88
2022/01/13 03:01:16;;;;;;;53.63;23.23;;;;;;;;;;5075118;28;20211;-88
2022/01/13 03:03:43;;;;;;;48.90;22.93;;;;;;;;;;5093587;28;20240;-87
2022/01/13 03:06:16;;;;;;;47.23;19.60;;;-2.00;99.90;;;;;;5093340;28;20184;-87
2022/01/13 03:08:45;;;;;;;44.13;20.57;;;-2.00;99.90;;;;;;5094033;28;20226;-87
2022/01/13 03:11:11;;;;;;;55.97;22.07;;;;;;;;;;5093365;28;20178;-86
2022/01/13 03:13:37;;;;;;;64.53;26.37;;;;;;;;;;5075021;28;20640;-88
2022/01/13 03:16:14;;;;;;;52.53;24.17;;;-1.80;99.90;;;;;;5058618;28;20186;-88
2022/01/13 03:18:40;;;;;;;38.17;16.80;;;;;;;;;;5093542;28;20162;-88
2022/01/13 03:21:07;;;;;;;51.23;22.50;;;-1.90;99.90;;;;;;5093360;28;20231;-87
2022/01/13 03:23:37;;;;;;;58.67;24.63;;;-2.00;99.90;;;;;;5074792;28;20181;-88
2022/01/13 03:26:03;;;;;;;59.50;22.83;;;-1.90;99.90;;;;;;5093197;28;20184;-87
2022/01/13 03:28:31;;;;;;;36.60;17.47;;;;;;;;;;5074916;28;20213;-87
2022/01/13 03:31:02;;;;;;;50.90;21.90;;;-1.80;99.90;;;;;;5074878;28;20181;-87
2022/01/13 03:33:28;;;;;;;49.87;21.50;;;;;;;;;;5093096;28;20231;-88
2022/01/13 03:35:54;;;;;;;39.27;16.23;;;;;;;;;;5074606;28;20186;-87
2022/01/13 03:38:21;;;;;;;47.10;18.53;;;;;;;;;;5074832;28;20234;-86
2022/01/13 03:40:47;;;;;;;51.37;20.73;;;;;;;;;;5093200;28;20211;-87
2022/01/13 03:43:15;;;;;;;55.27;19.93;;;;;;;;;;5074980;28;20540;-86
2022/01/13 03:45:41;;;;;;;51.87;22.60;;;;;;;;;;5058466;28;20538;-86
2022/01/13 03:48:09;;;;;;;56.43;23.70;;;;;;;;;;5092797;28;20185;-86
2022/01/13 03:50:35;;;;;;;47.07;20.50;;;;;;;;;;5074760;28;20224;-86
2022/01/13 03:53:01;;;;;;;48.17;21.50;;;;;;;;;;5092744;28;20533;-87
2022/01/13 03:55:36;;;;;;;53.83;24.93;;;-1.60;99.90;;;;;;5092901;28;20177;-86
2022/01/13 03:58:39;;;;;;;53.20;19.57;;;-1.50;99.90;;;;;;5075106;28;20551;-87
2022/01/13 04:01:26;;;;;;;49.77;23.40;;;-1.70;99.90;;;;;;5093055;28;20221;-86
2022/01/13 04:03:52;;;;;;;56.00;24.67;;;;;;;;;;5075080;28;20210;-88
2022/01/13 04:06:18;;;;;;;46.70;22.37;;;;;;;;;;5074907;28;20240;-87
2022/01/13 04:08:48;;;;;;;39.93;17.17;;;;;;;;;;5093111;28;20170;-88
2022/01/13 04:11:22;;;;;;;40.07;17.30;;;-1.50;99.90;;;;;;5061602;28;20287;-87
2022/01/13 04:14:01;;;;;;;50.70;21.33;;;;;;;;;;5097224;28;20220;-87
2022/01/13 04:16:31;;;;;;;50.27;19.97;;;-1.40;99.90;;;;;;5078603;28;20541;-87
2022/01/13 04:19:01;;;;;;;49.50;19.87;;;;;;;;;;5097031;28;20184;-89
2022/01/13 04:21:28;;;;;;;31.27;14.43;;;;;;;;;;5061640;28;20241;-88
2022/01/13 04:23:56;;;;;;;44.40;19.27;;;;;;;;;;5078559;28;20190;-89
2022/01/13 04:26:28;;;;;;;46.07;20.83;;;-1.40;99.90;;;;;;5096803;28;20228;-88
2022/01/13 04:29:15;;;;;;;55.90;22.43;;;-1.30;99.90;;;;;;5079030;28;20175;-90
2022/01/13 04:31:43;;;;;;;50.53;21.03;;;-1.30;99.90;;;;;;5096474;28;20182;-90
2022/01/13 04:34:09;;;;;;;40.70;15.53;;;;;;;;;;5096548;28;20174;-87
2022/01/13 04:36:35;;;;;;;38.17;16.37;;;;;;;;;;5077845;28;20183;-89
2022/01/13 04:39:03;;;;;;;54.23;20.90;;;-1.20;99.90;;;;;;5078149;28;20178;-89
2022/01/13 04:41:33;;;;;;;56.07;22.63;;;;;;;;;;5077867;28;20220;-89
2022/01/13 04:43:59;;;;;;;49.23;20.17;;;;;;;;;;5078515;28;20179;-89
2022/01/13 04:46:25;;;;;;;51.17;20.33;;;;;;;;;;5078105;28;20412;-88
2022/01/13 04:48:51;;;;;;;38.77;18.47;;;;;;;;;;5077781;28;20179;-89
2022/01/13 04:51:17;;;;;;;57.87;23.63;;;;;;;;;;5096185;28;20253;-89
2022/01/13 04:53:43;;;;;;;46.10;19.40;;;;;;;;;;5095579;28;20181;-89
2022/01/13 04:56:14;;;;;;;57.90;24.07;;;;;;;;;;5078542;28;20192;-90
2022/01/13 04:58:40;;;;;;;62.20;25.13;;;;;;;;;;5077764;28;20673;-89
2022/01/13 05:01:06;;;;;;;48.07;21.23;;;;;;;;;;5077350;28;20306;-90
2022/01/13 05:03:32;;;;;;;54.50;21.37;;;;;;;;;;5083834;28;20285;-88
2022/01/13 05:05:58;;;;;;;55.60;21.40;;;;;;;;;;5092783;28;20273;-86
2022/01/13 05:08:24;;;;;;;54.13;21.83;;;;;;;;;;5086685;28;20200;-86
2022/01/13 05:10:50;;;;;;;50.40;18.43;;;;;;;;;;5098239;28;20218;-87
2022/01/13 05:13:16;;;;;;;50.10;22.27;;;;;;;;;;5108116;28;20190;-87
2022/01/13 05:15:44;;;;;;;51.93;21.83;;;;;;;;;;5087127;28;20187;-86
2022/01/13 05:20:48;;;;;;;50.87;20.43;;;;;;;;;;5109863;28;20723;-86
2022/01/13 05:23:14;;;;;;;59.23;21.83;;;;;;;;;;5082649;28;20305;-86
2022/01/13 05:25:41;;;;;;;54.23;20.97;;;-0.90;99.90;;;;;;5087666;28;20659;-87
2022/01/13 05:28:07;;;;;;;60.00;21.30;;;;;;;;;;5105901;28;20178;-86
2022/01/13 05:30:33;;;;;;;53.33;20.37;;;;;;;;;;5097745;28;20194;-86
2022/01/13 05:32:59;;;;;;;53.53;22.03;;;;;;;;;;5101386;28;20191;-87
2022/01/13 05:35:25;;;;;;;46.67;19.57;;;;;;;;;;5097464;28;20196;-86
2022/01/13 05:37:52;;;;;;;46.97;20.67;;;;;;;;;;5083818;28;20194;-86
2022/01/13 05:40:18;;;;;;;58.83;26.10;;;;;;;;;;5095520;28;20210;-87
2022/01/13 05:42:44;;;;;;;58.57;23.50;;;;;;;;;;5096281;28;20196;-86
2022/01/13 05:45:16;;;;;;;50.43;20.37;;;-0.60;99.90;;;;;;5093826;28;20202;-86
2022/01/13 05:47:43;;;;;;;47.97;19.87;;;-3.00;99.90;;;;;;5114075;28;20735;-86
2022/01/13 05:50:10;;;;;;;51.57;22.27;;;-1.00;99.90;;;;;;5115577;28;20321;-85
2022/01/13 05:52:37;;;;;;;47.07;20.37;;;;;;;;;;5077046;28;20715;-86
2022/01/13 05:55:04;;;;;;;61.60;21.90;;;-0.70;99.90;;;;;;5096113;28;20184;-85
2022/01/13 05:57:30;;;;;;;59.70;25.37;;;;;;;;;;5083606;28;20186;-86
2022/01/13 05:59:56;;;;;;;56.73;22.37;;;;;;;;;;5096413;28;20186;-86
2022/01/13 06:02:22;;;;;;;56.90;22.93;;;;;;;;;;5114930;28;20671;-87
2022/01/13 06:04:48;;;;;;;56.20;21.07;;;;;;;;;;5111741;28;20179;-87
2022/01/13 06:07:16;;;;;;;57.87;22.47;;;;;;;;;;5094724;28;20189;-87
2022/01/13 06:09:42;;;;;;;52.37;19.63;;;;;;;;;;5107563;28;20204;-88
2022/01/13 06:12:09;;;;;;;59.03;22.07;;;-0.50;99.90;;;;;;5114439;28;20633;-86
2022/01/13 06:14:35;;;;;;;59.03;23.03;;;;;;;;;;5096801;28;20257;-85
2022/01/13 06:17:01;;;;;;;54.30;21.00;;;;;;;;;;5079913;28;20277;-85
2022/01/13 06:19:27;;;;;;;50.23;19.47;;;;;;;;;;5096436;28;20186;-86
2022/01/13 06:21:53;;;;;;;57.33;22.67;;;;;;;;;;5096240;28;20247;-87
2022/01/13 06:24:20;;;;;;;58.37;21.60;;;;;;;;;;5114904;28;20174;-86
2022/01/13 06:26:46;;;;;;;53.70;20.97;;;;;;;;;;5114843;28;20223;-88
2022/01/13 06:29:12;;;;;;;57.40;22.73;;;;;;;;;;5115307;28;20695;-87
2022/01/13 06:31:38;;;;;;;68.87;26.07;;;;;;;;;;5114676;28;20267;-87
2022/01/13 06:34:04;;;;;;;55.80;21.73;;;;;;;;;;5096516;28;20212;-86
2022/01/13 06:36:31;;;;;;;52.27;21.57;;;;;;;;;;5084691;28;20212;-86
2022/01/13 06:38:57;;;;;;;29.63;12.90;;;;;;;;;;5093977;28;20174;-85
2022/01/13 06:41:23;;;;;;;44.20;16.67;;;;;;;;;;5094223;28;20208;-85
2022/01/13 06:43:49;;;;;;;46.27;18.73;;;;;;;;;;5075982;28;20301;-85
2022/01/13 06:46:16;;;;;;;60.77;25.53;;;;;;;;;;5076127;28;20674;-88
2022/01/13 06:48:43;;;;;;;54.63;20.87;;;-0.20;99.90;;;;;;5075991;28;20182;-87
2022/01/13 06:51:09;;;;;;;56.77;20.20;;;;;;;;;;5075620;28;20190;-87
2022/01/13 06:53:35;;;;;;;57.03;20.63;;;;;;;;;;5075891;28;20547;-87
2022/01/13 06:56:01;;;;;;;61.30;23.80;;;;;;;;;;5075952;28;20176;-87
2022/01/13 06:58:28;;;;;;;48.40;17.87;;;;;;;;;;5093867;28;20186;-87
2022/01/13 07:00:54;;;;;;;55.70;21.13;;;;;;;;;;5075689;28;20218;-86
2022/01/13 07:03:21;;;;;;;65.90;22.53;;;;;;;;;;5094253;28;20218;-88
2022/01/13 07:05:48;;;;;;;35.60;15.43;;;;;;;;;;5093820;28;20213;-88
2022/01/13 07:08:14;;;;;;;56.77;18.73;;;;;;;;;;5058926;28;20209;-87
2022/01/13 07:10:41;;;;;;;35.60;13.57;;;;;;;;;;5093846;28;20208;-86
2022/01/13 07:13:07;;;;;;;48.00;15.57;;;;;;;;;;5075441;28;20227;-86
2022/01/13 07:15:33;;;;;;;50.93;19.90;;;;;;;;;;5076922;28;20270;-88
2022/01/13 07:18:00;;;;;;;52.27;19.37;;;-0.10;99.90;;;;;;5077746;28;20188;-88
2022/01/13 07:20:27;;;;;;;55.40;18.30;;;;;;;;;;5078079;28;20243;-89
2022/01/13 07:22:53;;;;;;;50.00;19.17;;;;;;;;;;5094124;28;20207;-89
2022/01/13 07:25:19;;;;;;;62.57;21.73;;;;;;;;;;5076153;28;20233;-88
2022/01/13 07:27:45;;;;;;;57.53;20.07;;;;;;;;;;5095450;28;20187;-87
2022/01/13 07:30:12;;;;;;;55.77;22.40;;;;;;;;;;5076473;28;20182;-88
2022/01/13 07:32:38;;;;;;;53.33;19.87;;;-0.10;99.90;;;;;;5094880;28;20179;-88
2022/01/13 07:35:05;;;;;;;53.23;19.77;;;-0.10;99.90;;;;;;5079094;28;20180;-88
2022/01/13 07:37:31;;;;;;;61.37;21.03;;;;;;;;;;5096168;28;20180;-87
2022/01/13 07:39:57;;;;;;;42.93;18.97;;;;;;;;;;5081829;28;20190;-87
2022/01/13 07:42:25;;;;;;;58.10;21.43;;;;;;;;;;5098562;28;20764;-87
2022/01/13 07:44:52;;;;;;;44.53;17.80;;;;;;;;;;5098218;28;20181;-87
2022/01/13 07:47:18;;;;;;;55.47;20.60;;;;;;;;;;5117998;28;20191;-86
2022/01/13 07:49:44;;;;;;;53.03;20.20;;;;;;;;;;5119309;28;20177;-88
2022/01/13 07:52:11;;;;;;;55.60;20.33;;;-0.10;99.90;;;;;;5084657;28;20179;-89
2022/01/13 07:54:37;;;;;;;53.90;22.10;;;;;;;;;;5120455;28;20173;-87
2022/01/13 07:57:03;;;;;;;40.47;15.73;;;0.10;99.90;;;;;;5118993;28;20232;-88
2022/01/13 07:59:29;;;;;;;54.47;19.57;;;;;;;;;;5117447;28;20179;-87
2022/01/13 08:01:58;;;;;;;47.97;19.80;;;-0.20;99.90;;;;;;5117079;28;20199;-94
2022/01/13 08:04:24;;;;;;;53.17;20.70;;;;;;;;;;5112288;28;20203;-87
2022/01/13 08:06:50;;;;;;;46.93;18.10;;;;;;;;;;5095301;28;20251;-86
2022/01/13 08:09:16;;;;;;;50.83;19.30;;;;;;;;;;5079133;28;20190;-86
2022/01/13 08:11:44;;;;;;;60.53;24.80;;;;;;;;;;5116916;28;20188;-86
2022/01/13 08:14:10;;;;;;;54.30;19.83;;;;;;;;;;5096706;28;20209;-87
2022/01/13 08:16:40;;;;;;;53.83;24.47;;;;;;;;;;5099928;28;20671;-88
2022/01/13 08:21:51;;;;;;;53.97;20.13;;;;;;;;;;5100879;28;20276;-87
2022/01/13 08:24:17;;;;;;;40.10;15.77;;;;;;;;;;5079857;28;20185;-86
2022/01/13 08:26:43;;;;;;;44.73;19.73;;;;;;;;;;5078879;28;20178;-87
2022/01/13 08:29:09;;;;;;;44.53;18.17;;;;;;;;;;5063094;28;20190;-85
2022/01/13 08:31:35;;;;;;;50.90;20.17;;;;;;;;;;5101201;28;20261;-85
2022/01/13 08:34:01;;;;;;;46.00;17.90;;;;;;;;;;5062381;28;20178;-87
2022/01/13 08:36:27;;;;;;;41.73;17.27;;;;;;;;;;5078459;28;20531;-88
2022/01/13 08:38:53;;;;;;;42.63;17.40;;;;;;;;;;5078996;28;20639;-88
2022/01/13 08:41:19;;;;;;;36.43;14.10;;;;;;;;;;5078787;28;20217;-89
2022/01/13 08:43:46;;;;;;;52.30;22.37;;;;;;;;;;5096660;28;20179;-88
2022/01/13 08:46:12;;;;;;;50.30;20.17;;;;;;;;;;5077873;28;20219;-87
2022/01/13 08:48:38;;;;;;;50.13;19.03;;;;;;;;;;5078129;28;20231;-88
2022/01/13 08:51:04;;;;;;;38.90;16.80;;;;;;;;;;5097165;28;20267;-89
2022/01/13 08:53:30;;;;;;;44.27;17.67;;;;;;;;;;5079074;28;20233;-87
2022/01/13 08:55:58;;;;;;;37.97;15.97;;;;;;;;;;5077228;28;20271;-88
2022/01/13 08:58:25;;;;;;;38.93;16.67;;;;;;;;;;5078053;28;20267;-89
2022/01/13 09:00:52;;;;;;;46.53;19.63;;;;;;;;;;5078932;28;20245;-90
2022/01/13 09:03:18;;;;;;;35.77;16.73;;;;;;;;;;5096251;28;20231;-88
2022/01/13 09:05:44;;;;;;;39.47;18.23;;;;;;;;;;5061308;28;20213;-88
2022/01/13 09:08:11;;;;;;;46.27;19.20;;;0.30;99.90;;;;;;5095590;28;20182;-87
2022/01/13 09:10:42;;;;;;;49.70;22.37;;;0.40;99.90;;;;;;5095994;28;20180;-88
2022/01/13 09:13:14;;;;;;;40.67;17.50;;;0.30;99.90;;;;;;5077484;28;20288;-88
2022/01/13 09:15:47;;;;;;;44.57;20.40;;;;;;;;;;5079060;28;20608;-89
2022/01/13 09:18:19;;;;;;;32.57;14.23;;;0.40;99.90;;;;;;5062406;28;20187;-87
2022/01/13 09:20:46;;;;;;;38.77;16.83;;;0.50;99.90;;;;;;5095947;28;20240;-88
2022/01/13 09:23:13;;;;;;;39.80;17.27;;;0.50;99.90;;;;;;5077791;28;20252;-88
2022/01/13 09:25:39;;;;;;;45.00;18.97;;;;;;;;;;5078873;28;20198;-88
2022/01/13 09:28:08;;;;;;;41.70;18.00;;;0.50;99.90;;;;;;5078169;28;20176;-89
2022/01/13 09:30:34;;;;;;;26.50;13.53;;;0.50;99.90;;;;;;5079055;28;20178;-88
2022/01/13 09:33:01;;;;;;;44.53;16.23;;;;;;;;;;5081141;28;20184;-91
2022/01/13 09:35:27;;;;;;;41.80;17.80;;;;;;;;;;5079513;28;20185;-93
2022/01/13 09:37:53;;;;;;;35.83;13.87;;;;;;;;;;5063892;28;20209;-92
2022/01/13 09:40:19;;;;;;;35.10;15.37;;;;;;;;;;5061909;28;20178;-95
2022/01/13 09:42:46;;;;;;;25.37;11.77;;;0.60;99.90;;;;;;5063812;28;20201;-93
2022/01/13 09:45:14;;;;;;;41.43;17.87;;;0.60;99.90;;;;;;5097194;28;20171;-93
2022/01/13 09:47:41;;;;;;;40.03;18.60;;;0.60;99.90;;;;;;5097461;28;20207;-93
2022/01/13 09:50:11;;;;;;;34.37;15.60;;;0.60;99.90;;;;;;5078799;28;20174;-92
2022/01/13 09:52:37;;;;;;;38.67;17.53;;;;;;;;;;5080668;28;20212;-93
2022/01/13 09:55:05;;;;;;;33.90;15.10;;;0.60;99.90;;;;;;5096875;28;20219;-93
2022/01/13 09:57:31;;;;;;;44.03;17.50;;;;;;;;;;5045196;28;20188;-91
2022/01/13 09:59:58;;;;;;;37.13;15.97;;;;;;;;;;5061430;28;20543;-92
2022/01/13 10:02:24;;;;;;;25.07;13.10;;;;;;;;;;5077525;28;20258;-92
2022/01/13 10:04:54;;;;;;;31.90;15.60;;;1.90;99.90;;;;;;5079522;28;20184;-92
2022/01/13 10:07:41;;;;;;;31.80;14.90;;;0.80;99.90;;;;;;5079391;28;20209;-95
2022/01/13 10:10:12;;;;;;;29.53;14.10;;;0.50;99.90;;;;;;5080121;28;20274;-95
2022/01/13 10:12:40;;;;;;;29.93;15.37;;;;;;;;;;5098527;28;20172;-93
2022/01/13 10:18:03;;;;;;;28.23;15.17;;;;;;;;;;5105805;28;20192;-90
2022/01/13 10:20:30;;;;;;;34.67;15.83;;;0.80;99.90;;;;;;5099023;28;20248;-93
2022/01/13 10:23:06;;;;;;;37.67;15.17;;;0.80;99.90;;;;;;5079343;28;20205;-92
2022/01/13 10:25:35;;;;;;;26.03;12.17;;;0.80;99.90;;;;;;5079242;28;20176;-96
2022/01/13 10:28:17;;;;;;;29.90;14.80;;;0.70;99.90;;;;;;5079786;28;20274;-95
2022/01/13 10:30:47;;;;;;;22.63;11.70;;;0.80;99.90;;;;;;5079204;28;20276;-94
2022/01/13 10:33:25;;;;;;;31.60;16.13;;;0.90;99.90;;;;;;5078538;28;20265;-93
2022/01/13 10:35:54;;;;;;;28.73;15.50;;;0.80;99.90;;;;;;5079132;28;20279;-90
2022/01/13 10:38:21;;;;;;;27.23;15.33;;;0.80;99.90;;;;;;5097960;28;20179;-94
2022/01/13 10:40:48;;;;;;;21.83;10.47;;;;;;;;;;5096995;28;20206;-94
2022/01/13 10:43:16;;;;;;;32.77;16.80;;;0.80;99.90;;;;;;5096591;28;20178;-93
2022/01/13 10:45:42;;;;;;;31.43;14.60;;;;;;;;;;5096875;28;20334;-93
2022/01/13 10:48:23;;;;;;;29.00;13.27;;;0.80;99.90;;;;;;5079216;28;20173;-91
2022/01/13 10:51:04;;;;;;;24.53;12.47;;;0.80;99.90;;;;;;5078785;28;20627;-94
2022/01/13 10:53:39;;;;;;;31.30;14.63;;;0.90;99.90;;;;;;5078292;28;20209;-92
2022/01/13 10:56:08;;;;;;;27.23;13.97;;;0.90;99.90;;;;;;5089609;28;20522;-93
2022/01/13 10:58:47;;;;;;;24.67;11.77;;;0.90;99.90;;;;;;5116421;28;20169;-93
2022/01/13 11:01:14;;;;;;;29.97;17.37;;;;;;;;;;5098362;28;20207;-93
2022/01/13 11:03:41;;;;;;;29.30;13.90;;;0.90;99.90;;;;;;5098537;28;20228;-93
2022/01/13 11:06:09;;;;;;;30.67;15.23;;;;;;;;;;5098794;28;20180;-92
2022/01/13 11:08:40;;;;;;;30.40;14.83;;;0.90;99.90;;;;;;5099297;28;20180;-92
2022/01/13 11:11:07;;;;;;;29.83;14.87;;;;;;;;;;5116611;28;20162;-93
2022/01/13 11:13:38;;;;;;;26.87;13.63;;;;;;;;;;5099444;28;20211;-93
2022/01/13 11:16:04;;;;;;;27.00;13.63;;;;;;;;;;5118354;28;20183;-92
2022/01/13 11:18:32;;;;;;;24.70;12.17;;;;;;;;;;5098640;28;20181;-92
2022/01/13 11:20:59;;;;;;;24.47;13.50;;;;;;;;;;5116265;28;20233;-93
2022/01/13 11:23:28;;;;;;;20.67;11.30;;;;;;;;;;5098701;28;20182;-93
2022/01/13 11:25:55;;;;;;;30.97;13.23;;;;;;;;;;5100037;28;20189;-93
2022/01/13 11:28:24;;;;;;;24.80;14.47;;;;;;;;;;5098825;28;20189;-93
2022/01/13 11:30:50;;;;;;;23.23;13.40;;;;;;;;;;5100831;28;20182;-94
2022/01/13 11:33:18;;;;;;;24.90;13.80;;;1.20;99.90;;;;;;5101023;28;20182;-90
2022/01/13 11:35:49;;;;;;;26.80;12.77;;;;;;;;;;5102046;28;20180;-88
2022/01/13 11:38:19;;;;;;;21.53;11.73;;;;;;;;;;5098956;28;20184;-88
2022/01/13 11:40:47;;;;;;;22.07;11.43;;;;;;;;;;5118002;28;20217;-95
2022/01/13 11:43:37;;;;;;;17.90;10.37;;;;;;;;;;5100390;28;20182;-92
2022/01/13 11:46:14;;;;;;;20.40;11.30;;;;;;;;;;5116221;28;20215;-93
2022/01/13 11:48:53;;;;;;;23.00;12.80;;;;;;;;;;5097690;28;20181;-92
2022/01/13 11:51:21;;;;;;;28.67;16.10;;;;;;;;;;5097727;28;20185;-93
2022/01/13 11:54:02;;;;;;;28.50;14.73;;;;;;;;;;5114708;28;20188;-92
2022/01/13 11:56:29;;;;;;;32.10;15.17;;;;;;;;;;5097249;28;20207;-92
2022/01/13 11:58:56;;;;;;;27.80;14.20;;;1.30;99.90;;;;;;5097817;28;20297;-94
2022/01/13 12:01:23;;;;;;;22.20;11.50;;;1.30;99.90;;;;;;5097698;28;20209;-91
2022/01/13 12:03:54;;;;;;;30.50;16.60;;;1.30;99.90;;;;;;5115713;28;20204;-96
2022/01/13 12:06:43;;;;;;;19.10;11.40;;;1.20;99.90;;;;;;5099775;28;20217;-92
2022/01/13 12:09:11;;;;;;;25.63;13.33;;;1.30;99.90;;;;;;5117423;28;20178;-93
2022/01/13 12:11:40;;;;;;;22.93;11.97;;;1.20;99.90;;;;;;5097261;28;20181;-92
2022/01/13 12:14:31;;;;;;;25.67;13.17;;;1.30;99.90;;;;;;5098325;28;20185;-96
2022/01/13 12:20:40;;;;;;;27.87;13.03;;;1.60;99.90;;;;;;5034249;28;20232;-93
2022/01/13 12:23:17;;;;;;;31.57;14.10;;;;;;;;;;5092190;28;20197;-93
2022/01/13 12:25:44;;;;;;;28.63;13.90;;;1.40;99.90;;;;;;5115596;28;20173;-91
2022/01/13 12:28:19;;;;;;;20.87;10.33;;;1.40;99.90;;;;;;5098997;28;20209;-90
2022/01/13 12:30:45;;;;;;;24.50;12.33;;;;;;;;;;5099737;28;20184;-92
2022/01/13 12:33:28;;;;;;;31.87;14.13;;;1.40;99.90;;;;;;5120813;28;20182;-91
2022/01/13 12:35:54;;;;;;;28.63;14.27;;;;;;;;;;5122742;28;20169;-91
2022/01/13 12:38:22;;;;;;;31.30;18.80;;;1.50;99.90;;;;;;5086053;28;20269;-93
2022/01/13 12:41:03;;;;;;;28.47;14.97;;;1.60;99.90;;;;;;5121068;28;20193;-92
2022/01/13 12:46:16;;;;;;;32.20;15.33;;;1.60;99.90;;;;;;5122023;28;20166;-92
2022/01/13 12:48:44;;;;;;;35.07;16.37;;;1.50;99.90;;;;;;5100213;28;20210;-91
2022/01/13 12:51:15;;;;;;;29.87;16.17;;;1.40;99.90;;;;;;5102757;28;20186;-92
2022/01/13 12:53:42;;;;;;;29.60;15.53;;;;;;;;;;5085928;28;20174;-92
2022/01/13 12:56:08;;;;;;;35.83;16.97;;;;;;;;;;5099639;28;20183;-91
2022/01/13 12:58:43;;;;;;;37.13;17.43;;;1.60;99.90;;;;;;5100207;28;20222;-91
2022/01/13 13:01:18;;;;;;;27.37;13.73;;;1.60;99.90;;;;;;5119153;28;20189;-91
2022/01/13 13:03:57;;;;;;;35.53;16.40;;;;;;;;;;5103011;28;20180;-91
2022/01/13 13:06:23;;;;;;;31.00;14.07;;;1.70;99.90;;;;;;5109832;28;20561;-92
2022/01/13 13:08:50;;;;;;;35.40;14.77;;;;;;;;;;5069863;28;20181;-91
2022/01/13 13:11:16;;;;;;;30.63;14.57;;;;;;;;;;5101947;28;20186;-91
2022/01/13 13:13:49;;;;;;;31.30;16.63;;;1.70;99.90;;;;;;5101717;28;20300;-91
2022/01/13 13:16:16;;;;;;;39.50;16.63;;;;;;;;;;5084384;28;20611;-92
2022/01/13 13:18:42;;;;;;;36.40;15.83;;;1.80;99.90;;;;;;5099331;28;20230;-93
2022/01/13 13:21:09;;;;;;;30.60;13.67;;;;;;;;;;5116280;28;20233;-89
2022/01/13 13:23:39;;;;;;;31.20;15.70;;;1.80;99.90;;;;;;5098175;28;20185;-89
2022/01/13 13:26:10;;;;;;;41.13;22.23;;;1.80;99.90;;;;;;5116128;28;20257;-90
2022/01/13 13:28:39;;;;;;;36.87;18.30;;;1.80;99.90;;;;;;5116718;28;20158;-87
2022/01/13 13:31:11;;;;;;;37.63;17.53;;;1.80;99.90;;;;;;5116047;28;20216;-86
2022/01/13 13:33:45;;;;;;;39.77;16.37;;;2.00;99.90;;;;;;5097932;28;20177;-89
2022/01/13 13:36:15;;;;;;;44.97;22.87;;;1.80;99.90;;;;;;5098337;28;20182;-88
2022/01/13 13:38:54;;;;;;;44.43;24.00;;;1.70;99.90;;;;;;5098509;28;20201;-88
2022/01/13 13:41:25;;;;;;;41.03;18.33;;;1.90;99.90;;;;;;5098093;28;20215;-89
2022/01/13 13:43:53;;;;;;;40.57;18.07;;;1.90;99.90;;;;;;5115234;28;20307;-88
2022/01/13 13:46:19;;;;;;;44.37;23.13;;;;;;;;;;5083269;28;20192;-89
2022/01/13 13:48:46;;;;;;;35.00;17.20;;;1.90;99.90;;;;;;5083774;28;20196;-91
2022/01/13 13:51:17;;;;;;;50.80;18.97;;;2.00;99.90;;;;;;5101317;28;20184;-88
2022/01/13 13:54:08;;;;;;;34.03;15.70;;;2.00;99.90;;;;;;5115797;28;20185;-89
2022/01/13 14:00:02;;;;;;;46.93;22.13;;;;;;;;;;5320417;22;20722;-88
2022/01/13 14:02:32;;;;;;;39.77;16.67;;;2.00;99.90;;;;;;5063591;28;20272;-92
2022/01/13 14:04:59;;;;;;;37.83;17.77;;;;;;;;;;5081123;28;20186;-90
2022/01/13 14:07:43;;;;;;;44.47;19.37;;;2.00;99.90;;;;;;5080922;28;20198;-89
2022/01/13 14:10:22;;;;;;;34.20;16.83;;;2.00;99.90;;;;;;5076309;28;20174;-89
2022/01/13 14:13:06;;;;;;;35.33;17.03;;;2.00;99.90;;;;;;5062508;28;20633;-89
2022/01/13 14:15:38;;;;;;;38.57;17.83;;;;;;;;;;5063750;28;20250;-89
2022/01/13 14:18:15;;;;;;;36.40;15.70;;;2.10;99.90;;;;;;5070597;28;20250;-89
2022/01/13 14:20:41;;;;;;;32.63;14.70;;;;;;;;;;5072057;28;20569;-89